createdAt,value
2018-12-16T00:02:24.110Z,97.43
2018-12-16T00:04:54.106Z,109.17
2018-12-16T00:07:24.950Z,79.57
2018-12-16T00:09:55.647Z,87.33
2018-12-16T00:12:26.433Z,120.67
2018-12-16T00:14:57.219Z,298.53
2018-12-16T00:17:27.852Z,387.90
2018-12-16T00:19:58.750Z,418.50
2018-12-16T00:22:30.060Z,386.00
2018-12-16T00:25:00.837Z,362.43
2018-12-16T00:27:31.921Z,293.93
2018-12-16T00:30:02.514Z,85.23
2018-12-16T00:32:33.346Z,253.83
2018-12-16T00:35:04.185Z,446.80
2018-12-16T00:37:34.126Z,377.43
2018-12-16T00:40:04.817Z,130.07
2018-12-16T00:42:35.614Z,141.30
2018-12-16T00:45:06.491Z,459.77
2018-12-16T00:47:37.430Z,493.07
2018-12-16T00:50:08.655Z,469.27
2018-12-16T00:52:38.578Z,524.97
2018-12-16T00:55:09.353Z,549.50
2018-12-16T00:57:40.280Z,572.80
2018-12-16T01:00:15.016Z,446.77
2018-12-16T01:02:45.753Z,553.07
2018-12-16T01:05:16.666Z,434.23
2018-12-16T01:07:47.490Z,441.33
2018-12-16T01:10:18.541Z,320.27
2018-12-16T01:12:49.255Z,470.40
2018-12-16T01:15:20.023Z,431.80
2018-12-16T01:17:51.038Z,369.77
2018-12-16T01:20:21.963Z,520.17
2018-12-16T01:22:52.611Z,434.30
2018-12-16T01:25:23.444Z,266.77
2018-12-16T01:27:54.200Z,576.37
2018-12-16T01:30:25.143Z,457.53
2018-12-16T01:32:57.077Z,389.40
2018-12-16T01:35:27.815Z,440.73
2018-12-16T01:37:58.685Z,256.80
2018-12-16T01:40:29.096Z,109.10
2018-12-16T01:42:59.372Z,587.33
2018-12-16T01:45:29.925Z,297.07
2018-12-16T01:48:00.502Z,156.07
2018-12-16T01:50:31.397Z,288.60
2018-12-16T01:53:02.107Z,190.77
2018-12-16T01:55:33.064Z,120.00
2018-12-16T01:58:03.841Z,114.53
2018-12-16T02:00:34.756Z,108.37
2018-12-16T02:03:05.618Z,102.30
2018-12-16T02:05:36.666Z,107.73
2018-12-16T02:08:06.883Z,109.10
2018-12-16T02:10:37.414Z,183.00
2018-12-16T02:13:08.522Z,155.80
2018-12-16T02:15:39.288Z,165.23
2018-12-16T02:18:09.268Z,122.63
2018-12-16T02:20:40.270Z,149.37
2018-12-16T02:23:10.950Z,369.17
2018-12-16T02:25:41.614Z,361.30
2018-12-16T02:28:12.279Z,380.63
2018-12-16T02:30:43.582Z,430.47
2018-12-16T02:33:14.478Z,370.73
2018-12-16T02:35:45.346Z,467.37
2018-12-16T02:38:15.976Z,347.03
2018-12-16T02:40:46.988Z,527.67
2018-12-16T02:43:17.634Z,325.77
2018-12-16T02:45:48.278Z,498.27
2018-12-16T02:48:18.922Z,563.80
2018-12-16T02:50:49.477Z,496.97
2018-12-16T02:53:19.749Z,508.17
2018-12-16T02:55:50.650Z,481.40
2018-12-16T02:58:21.279Z,152.57
2018-12-16T03:00:51.932Z,323.30
2018-12-16T03:03:21.913Z,136.27
2018-12-16T03:05:52.882Z,528.93
2018-12-16T03:08:23.661Z,346.20
2018-12-16T03:10:54.435Z,208.23
2018-12-16T03:13:25.074Z,570.80
2018-12-16T03:15:56.019Z,573.63
2018-12-16T03:18:26.827Z,474.00
2018-12-16T03:20:57.792Z,568.07
2018-12-16T03:23:28.998Z,490.53
2018-12-16T03:25:59.741Z,124.03
2018-12-16T03:28:30.478Z,206.63
2018-12-16T03:31:01.105Z,247.27
2018-12-16T03:33:31.829Z,116.83
2018-12-16T03:36:02.781Z,127.33
2018-12-16T03:38:33.566Z,139.67
2018-12-16T03:41:04.053Z,151.73
2018-12-16T03:43:34.081Z,216.80
2018-12-16T03:46:04.748Z,113.47
2018-12-16T03:48:36.143Z,211.30
2018-12-16T03:51:07.038Z,205.63
2018-12-16T03:53:37.606Z,109.30
2018-12-16T03:56:08.345Z,184.77
2018-12-16T03:58:45.751Z,407.70
2018-12-16T04:01:16.558Z,340.27
2018-12-16T04:03:47.305Z,301.80
2018-12-16T04:06:18.252Z,275.50
2018-12-16T04:08:48.784Z,127.17
2018-12-16T04:11:19.610Z,103.77
2018-12-16T04:13:50.179Z,415.03
2018-12-16T04:16:20.937Z,224.70
2018-12-16T04:18:51.488Z,157.80
2018-12-16T04:21:21.698Z,120.47
2018-12-16T04:23:52.508Z,92.93
2018-12-16T04:26:23.194Z,440.67
2018-12-16T04:28:53.794Z,97.43
2018-12-16T04:31:24.464Z,92.93
2018-12-16T04:33:55.170Z,175.03
2018-12-16T04:36:26.195Z,264.13
2018-12-16T04:38:57.023Z,357.93
2018-12-16T04:41:27.442Z,141.93
2018-12-16T04:43:58.513Z,110.23
2018-12-16T04:46:29.171Z,177.20
2018-12-16T04:49:00.022Z,90.43
2018-12-16T04:51:30.852Z,93.10
2018-12-16T04:54:01.989Z,116.37
2018-12-16T04:56:32.681Z,87.57
2018-12-16T04:59:03.428Z,109.07
2018-12-16T05:01:34.218Z,95.47
2018-12-16T05:04:04.989Z,133.30
2018-12-16T05:06:35.905Z,145.60
2018-12-16T05:09:08.028Z,130.87
2018-12-16T05:11:38.580Z,167.10
2018-12-16T05:14:09.728Z,143.73
2018-12-16T05:16:40.313Z,127.53
2018-12-16T05:19:10.931Z,109.17
2018-12-16T05:21:41.624Z,248.90
2018-12-16T05:24:12.146Z,284.13
2018-12-16T05:26:42.325Z,281.57
2018-12-16T05:29:12.938Z,180.77
2018-12-16T05:31:43.631Z,148.30
2018-12-16T05:34:14.170Z,236.43
2018-12-16T05:36:44.040Z,272.43
2018-12-16T05:39:14.980Z,318.93
2018-12-16T05:41:45.367Z,339.53
2018-12-16T05:44:15.923Z,327.80
2018-12-16T05:46:46.363Z,319.20
2018-12-16T05:49:17.020Z,353.13
2018-12-16T05:51:46.953Z,305.63
2018-12-16T05:54:17.774Z,368.63
2018-12-16T05:56:48.637Z,350.67
2018-12-16T05:59:19.263Z,333.73
2018-12-16T06:01:50.265Z,413.70
2018-12-16T06:04:21.362Z,420.40
2018-12-16T06:06:52.429Z,449.17
2018-12-16T06:09:22.998Z,557.13
2018-12-16T06:11:54.650Z,467.50
2018-12-16T06:14:25.680Z,436.10
2018-12-16T06:16:56.416Z,490.87
2018-12-16T06:19:26.688Z,443.43
2018-12-16T06:21:57.390Z,492.23
2018-12-16T06:24:28.079Z,548.93
2018-12-16T06:26:58.877Z,345.00
2018-12-16T06:29:29.369Z,162.37
2018-12-16T06:32:00.175Z,216.73
2018-12-16T06:34:30.694Z,273.50
2018-12-16T06:37:01.274Z,140.27
2018-12-16T06:39:32.111Z,370.53
2018-12-16T06:42:02.723Z,578.60
2018-12-16T06:44:33.453Z,535.60
2018-12-16T06:47:03.977Z,510.13
2018-12-16T06:49:34.168Z,439.20
2018-12-16T06:52:05.039Z,433.53
2018-12-16T06:54:35.885Z,387.13
2018-12-16T06:57:05.676Z,400.07
2018-12-16T06:59:35.596Z,216.90
2018-12-16T07:02:06.347Z,405.53
2018-12-16T07:04:36.572Z,243.73
2018-12-16T07:07:07.118Z,221.77
2018-12-16T07:09:37.526Z,263.50
2018-12-16T07:12:07.477Z,332.57
2018-12-16T07:14:37.804Z,331.23
2018-12-16T07:17:08.616Z,148.63
2018-12-16T07:19:39.366Z,217.60
2018-12-16T07:22:10.110Z,319.33
2018-12-16T07:24:39.949Z,228.30
2018-12-16T07:27:10.384Z,288.90
2018-12-16T07:29:41.764Z,192.87
2018-12-16T07:32:12.291Z,159.70
2018-12-16T07:34:42.795Z,258.23
2018-12-16T07:37:19.042Z,195.13
2018-12-16T07:39:45.700Z,182.17
2018-12-16T07:42:16.849Z,118.47
2018-12-16T07:44:47.535Z,182.13
2018-12-16T07:47:18.345Z,228.53
2018-12-16T07:49:48.999Z,197.83
2018-12-16T07:52:19.855Z,283.43
2018-12-16T07:54:50.547Z,370.47
2018-12-16T07:57:21.325Z,404.63
2018-12-16T07:59:52.277Z,411.17
2018-12-16T08:02:23.075Z,366.20
2018-12-16T08:04:53.511Z,250.50
2018-12-16T08:07:24.255Z,319.10
2018-12-16T08:09:55.304Z,203.47
2018-12-16T08:12:26.658Z,248.53
2018-12-16T08:14:57.746Z,225.83
2018-12-16T08:17:28.886Z,223.17
2018-12-16T08:19:59.809Z,248.67
2018-12-16T08:22:29.907Z,249.53
2018-12-16T08:25:00.489Z,281.17
2018-12-16T08:27:31.070Z,358.17
2018-12-16T08:30:01.582Z,197.07
2018-12-16T08:32:32.428Z,385.37
2018-12-16T08:35:03.082Z,240.97
2018-12-16T08:37:33.983Z,245.87
2018-12-16T08:40:05.573Z,371.57
2018-12-16T08:42:36.250Z,426.30
2018-12-16T08:45:08.742Z,232.30
2018-12-16T08:47:39.911Z,234.20
2018-12-16T08:50:10.570Z,228.57
2018-12-16T08:52:41.890Z,504.07
2018-12-16T08:55:13.142Z,310.37
2018-12-16T08:57:44.214Z,350.40
2018-12-16T09:00:15.400Z,232.57
2018-12-16T09:02:46.490Z,448.27
2018-12-16T09:05:17.814Z,395.33
2018-12-16T09:07:48.015Z,412.20
2018-12-16T09:10:19.271Z,303.57
2018-12-16T09:12:51.676Z,443.43
2018-12-16T09:15:22.966Z,426.43
2018-12-16T09:17:54.607Z,380.17
2018-12-16T09:20:25.778Z,502.00
2018-12-16T09:22:57.019Z,313.37
2018-12-16T09:25:28.174Z,454.10
2018-12-16T09:27:59.516Z,410.17
2018-12-16T09:30:30.694Z,406.70
2018-12-16T09:33:02.411Z,419.20
2018-12-16T09:35:33.716Z,393.63
2018-12-16T09:38:04.963Z,360.20
2018-12-16T09:40:35.567Z,429.73
2018-12-16T09:43:07.000Z,432.47
2018-12-16T09:45:37.610Z,489.13
2018-12-16T09:48:08.441Z,506.90
2018-12-16T09:50:39.666Z,495.97
2018-12-16T09:53:10.821Z,355.23
2018-12-16T09:55:41.905Z,525.50
2018-12-16T09:58:12.803Z,655.67
2018-12-16T10:00:43.061Z,734.93
2018-12-16T10:03:16.596Z,546.73
2018-12-16T10:05:47.568Z,542.63
2018-12-16T10:08:19.397Z,536.53
2018-12-16T10:10:50.422Z,637.10
2018-12-16T10:13:21.283Z,716.80
2018-12-16T10:15:52.621Z,463.93
2018-12-16T10:18:24.485Z,619.37
2018-12-16T10:20:55.628Z,440.93
2018-12-16T10:23:26.564Z,599.93
2018-12-16T10:25:57.628Z,536.50
2018-12-16T10:28:28.155Z,598.87
2018-12-16T10:31:00.219Z,606.53
2018-12-16T10:33:31.387Z,457.70
2018-12-16T10:36:02.547Z,546.30
2018-12-16T10:38:32.984Z,333.60
2018-12-16T10:41:03.530Z,345.23
2018-12-16T10:43:34.788Z,528.73
2018-12-16T10:46:05.119Z,551.20
2018-12-16T10:48:36.686Z,455.93
2018-12-16T10:51:07.797Z,420.00
2018-12-16T10:53:38.698Z,479.87
2018-12-16T10:56:09.121Z,356.10
2018-12-16T10:58:39.788Z,424.63
2018-12-16T11:01:17.044Z,284.17
2018-12-16T11:03:48.462Z,213.70
2018-12-16T11:06:20.153Z,295.77
2018-12-16T11:08:51.792Z,211.13
2018-12-16T11:11:21.758Z,221.50
2018-12-16T11:13:52.943Z,189.13
2018-12-16T11:16:23.735Z,196.23
2018-12-16T11:18:54.997Z,182.95
2018-12-16T11:21:25.239Z,274.43
2018-12-16T11:23:56.353Z,257.97
2018-12-16T11:26:27.185Z,294.00
2018-12-16T11:28:58.080Z,173.57
2018-12-16T11:31:28.391Z,204.87
2018-12-16T11:33:58.566Z,218.53
2018-12-16T11:36:29.564Z,202.10
2018-12-16T11:39:00.405Z,254.67
2018-12-16T11:41:31.942Z,133.53
2018-12-16T11:44:02.666Z,282.03
2018-12-16T11:46:33.907Z,193.97
2018-12-16T11:49:05.673Z,269.47
2018-12-16T11:51:37.295Z,236.70
2018-12-16T11:54:08.378Z,157.00
2018-12-16T11:56:39.774Z,170.73
2018-12-16T11:59:10.414Z,160.00
2018-12-16T12:01:41.203Z,162.50
2018-12-16T12:04:11.780Z,206.87
2018-12-16T12:06:42.343Z,263.83
2018-12-16T12:09:13.109Z,192.60
2018-12-16T12:11:43.787Z,137.57
2018-12-16T12:14:14.598Z,107.53
2018-12-16T12:16:45.067Z,169.57
2018-12-16T12:19:15.943Z,206.47
2018-12-16T12:21:46.646Z,200.83
2018-12-16T12:24:17.578Z,189.90
2018-12-16T12:26:48.130Z,227.60
2018-12-16T12:29:18.993Z,182.67
2018-12-16T12:31:49.333Z,165.23
2018-12-16T12:34:19.678Z,155.77
2018-12-16T12:36:50.188Z,150.40
2018-12-16T12:39:20.830Z,111.97
2018-12-16T12:41:51.518Z,102.87
2018-12-16T12:44:22.439Z,119.50
2018-12-16T12:46:52.373Z,95.43
2018-12-16T12:49:23.243Z,100.93
2018-12-16T12:51:53.785Z,93.37
2018-12-16T12:54:24.338Z,63.77
2018-12-16T12:56:54.836Z,54.77
2018-12-16T12:59:26.423Z,78.73
2018-12-16T13:01:57.576Z,86.53
2018-12-16T13:04:28.930Z,81.77
2018-12-16T13:06:59.876Z,92.07
2018-12-16T13:09:30.394Z,127.60
2018-12-16T13:12:01.480Z,137.00
2018-12-16T13:14:32.512Z,132.97
2018-12-16T13:17:03.848Z,36.53
2018-12-16T13:19:33.865Z,7.10
2018-12-16T13:22:03.737Z,5.47
2018-12-16T13:24:34.720Z,4.23
2018-12-16T13:27:05.713Z,5.27
2018-12-16T13:29:36.593Z,4.43
2018-12-16T13:32:07.592Z,4.40
2018-12-16T13:34:37.676Z,7.73
2018-12-16T13:37:08.781Z,5.13
2018-12-16T13:39:39.737Z,5.27
2018-12-16T13:42:10.465Z,5.67
2018-12-16T13:44:41.439Z,4.77
2018-12-16T13:47:12.392Z,6.60
2018-12-16T13:49:42.971Z,5.37
2018-12-16T13:52:13.632Z,8.70
2018-12-16T13:54:45.035Z,7.77
2018-12-16T13:57:16.481Z,7.13
2018-12-16T13:59:48.363Z,6.70
2018-12-16T14:02:18.240Z,6.03
2018-12-16T14:04:49.027Z,5.73
2018-12-16T14:07:19.528Z,7.27
2018-12-16T14:09:50.820Z,6.37
2018-12-16T14:12:21.080Z,5.20
2018-12-16T14:14:51.758Z,6.10
2018-12-16T14:17:21.838Z,7.17
2018-12-16T14:19:52.395Z,9.10
2018-12-16T14:22:22.434Z,12.03
2018-12-16T14:24:52.817Z,9.00
2018-12-16T14:27:23.472Z,7.40
2018-12-16T14:29:54.328Z,7.80
2018-12-16T14:32:24.196Z,7.80
2018-12-16T14:34:54.329Z,8.93
2018-12-16T14:37:24.421Z,7.43
2018-12-16T14:39:54.388Z,8.37
2018-12-16T14:42:24.639Z,9.07
2018-12-16T14:44:55.411Z,7.67
2018-12-16T14:47:26.241Z,8.90
2018-12-16T14:49:56.699Z,7.63
2018-12-16T14:52:26.745Z,6.40
2018-12-16T14:54:57.366Z,8.83
2018-12-16T14:57:27.590Z,10.07
2018-12-16T14:59:57.927Z,9.53
2018-12-16T15:02:27.770Z,7.67
2018-12-16T15:04:58.018Z,7.43
2018-12-16T15:07:28.790Z,7.90
2018-12-16T15:09:59.869Z,8.03
2018-12-16T15:12:31.044Z,13.73
2018-12-16T15:15:02.327Z,9.40
2018-12-16T15:17:32.365Z,8.60
2018-12-16T15:20:03.524Z,7.97
2018-12-16T15:22:33.507Z,9.17
2018-12-16T15:25:03.699Z,11.40
2018-12-16T15:27:34.987Z,8.60
2018-12-16T15:30:06.928Z,8.90
2018-12-16T15:32:36.764Z,9.70
2018-12-16T15:35:07.113Z,10.93
2018-12-16T15:37:37.051Z,9.63
2018-12-16T15:40:08.201Z,8.50
2018-12-16T15:42:38.061Z,9.40
2018-12-16T15:45:10.044Z,9.13
2018-12-16T15:47:39.876Z,11.47
2018-12-16T15:50:10.594Z,10.33
2018-12-16T15:52:40.544Z,8.93
2018-12-16T15:55:11.460Z,8.37
2018-12-16T15:57:41.213Z,7.70
2018-12-16T16:00:11.205Z,8.67
2018-12-16T16:02:41.022Z,9.83
2018-12-16T16:05:10.880Z,10.03
2018-12-16T16:07:40.772Z,8.30
2018-12-16T16:10:10.852Z,11.67
2018-12-16T16:12:41.083Z,9.73
2018-12-16T16:15:11.345Z,10.37
2018-12-16T16:17:41.546Z,11.23
2018-12-16T16:20:11.802Z,8.40
2018-12-16T16:22:41.629Z,10.17
2018-12-16T16:25:11.679Z,10.33
2018-12-16T16:27:41.645Z,7.73
2018-12-16T16:30:11.930Z,13.40
2018-12-16T16:32:41.788Z,12.63
2018-12-16T16:35:11.756Z,9.00
2018-12-16T16:37:42.412Z,10.83
2018-12-16T16:40:14.498Z,10.33
2018-12-16T16:42:44.422Z,7.40
2018-12-16T16:45:14.554Z,10.00
2018-12-16T16:47:44.812Z,9.63
2018-12-16T16:50:14.898Z,10.33
2018-12-16T16:52:44.905Z,12.70
2018-12-16T16:55:14.851Z,10.77
2018-12-16T16:57:44.730Z,13.20
2018-12-16T17:00:14.903Z,10.70
2018-12-16T17:02:44.962Z,13.80
2018-12-16T17:05:14.897Z,12.40
2018-12-16T17:07:44.865Z,10.57
2018-12-16T17:10:15.124Z,10.77
2018-12-16T17:12:45.191Z,12.70
2018-12-16T17:15:15.237Z,9.77
2018-12-16T17:17:45.356Z,12.03
2018-12-16T17:20:15.614Z,12.17
2018-12-16T17:22:45.488Z,12.03
2018-12-16T17:25:16.319Z,8.40
2018-12-16T17:27:46.559Z,11.63
2018-12-16T17:30:16.761Z,7.37
2018-12-16T17:32:46.683Z,9.93
2018-12-16T17:35:17.382Z,11.40
2018-12-16T17:37:47.391Z,10.80
2018-12-16T17:40:17.904Z,9.23
2018-12-16T17:42:47.968Z,10.17
2018-12-16T17:45:18.760Z,9.03
2018-12-16T17:47:49.355Z,10.30
2018-12-16T17:50:19.902Z,10.50
2018-12-16T17:52:50.120Z,9.43
2018-12-16T17:55:20.568Z,12.30
2018-12-16T17:57:52.177Z,10.47
2018-12-16T18:00:23.161Z,8.90
2018-12-16T18:02:53.092Z,10.43
2018-12-16T18:05:23.318Z,13.20
2018-12-16T18:07:53.233Z,11.37
2018-12-16T18:10:23.368Z,10.80
2018-12-16T18:12:53.881Z,9.30
2018-12-16T18:15:24.435Z,12.90
2018-12-16T18:17:54.872Z,7.23
2018-12-16T18:20:24.959Z,9.57
2018-12-16T18:22:54.986Z,11.43
2018-12-16T18:25:25.263Z,11.67
2018-12-16T18:27:55.313Z,12.33
2018-12-16T18:30:25.197Z,10.97
2018-12-16T18:32:55.551Z,12.57
2018-12-16T18:35:25.639Z,13.37
2018-12-16T18:37:55.936Z,11.30
2018-12-16T18:40:26.176Z,13.60
2018-12-16T18:42:56.049Z,16.37
2018-12-16T18:45:26.338Z,12.47
2018-12-16T18:47:56.582Z,16.57
2018-12-16T18:50:26.544Z,15.13
2018-12-16T18:52:56.531Z,10.33
2018-12-16T18:55:26.713Z,16.73
2018-12-16T18:57:56.990Z,15.40
2018-12-16T19:00:27.487Z,10.93
2018-12-16T19:02:57.299Z,15.30
2018-12-16T19:05:28.259Z,10.33
2018-12-16T19:07:58.712Z,15.47
2018-12-16T19:10:28.872Z,14.13
2018-12-16T19:12:59.506Z,14.37
2018-12-16T19:15:56.567Z,15.97
2018-12-16T19:18:47.802Z,14.27
2018-12-16T19:21:18.250Z,14.10
2018-12-16T19:23:48.518Z,15.53
2018-12-16T19:26:19.434Z,16.90
2018-12-16T19:28:49.456Z,12.33
2018-12-16T19:31:19.716Z,11.50
2018-12-16T19:33:49.675Z,18.17
2018-12-16T19:36:20.041Z,15.37
2018-12-16T19:38:50.114Z,16.37
2018-12-16T19:41:20.148Z,18.10
2018-12-16T19:43:50.393Z,17.30
2018-12-16T19:46:20.739Z,20.13
2018-12-16T19:48:50.758Z,16.17
2018-12-16T19:51:21.001Z,17.83
2018-12-16T19:53:50.995Z,20.13
2018-12-16T19:56:21.354Z,16.73
2018-12-16T19:58:52.763Z,16.70
2018-12-16T20:01:23.327Z,17.07
2018-12-16T20:03:58.411Z,20.37
2018-12-16T20:06:44.293Z,19.00
2018-12-16T20:09:14.325Z,22.43
2018-12-16T20:11:44.323Z,19.23
2018-12-16T20:14:14.177Z,19.60
2018-12-16T20:16:44.129Z,24.60
2018-12-16T20:19:14.021Z,19.13
2018-12-16T20:21:43.921Z,19.53
2018-12-16T20:24:13.823Z,21.37
2018-12-16T20:26:43.658Z,17.50
2018-12-16T20:29:13.744Z,19.73
2018-12-16T20:31:43.685Z,20.60
2018-12-16T20:34:13.549Z,17.00
2018-12-16T20:36:43.463Z,22.07
2018-12-16T20:39:13.306Z,27.47
2018-12-16T20:41:43.328Z,24.00
2018-12-16T20:44:13.398Z,17.20
2018-12-16T20:46:43.219Z,18.27
2018-12-16T20:49:13.138Z,27.87
2018-12-16T20:51:43.158Z,23.53
2018-12-16T20:54:13.281Z,22.90
2018-12-16T20:56:43.838Z,23.27
2018-12-16T20:59:13.859Z,22.13
2018-12-16T21:01:43.625Z,17.50
2018-12-16T21:04:13.542Z,20.27
2018-12-16T21:06:43.402Z,21.63
2018-12-16T21:09:13.638Z,18.97
2018-12-16T21:11:48.641Z,18.93
2018-12-16T21:14:23.698Z,15.27
2018-12-16T21:16:59.046Z,20.90
2018-12-16T21:19:29.595Z,22.53
2018-12-16T21:21:59.406Z,18.23
2018-12-16T21:24:29.303Z,18.97
2018-12-16T21:26:59.414Z,22.47
2018-12-16T21:29:29.433Z,17.80
2018-12-16T21:31:59.396Z,21.37
2018-12-16T21:34:29.162Z,23.13
2018-12-16T21:36:59.289Z,25.63
2018-12-16T21:39:29.594Z,26.80
2018-12-16T21:41:59.649Z,19.60
2018-12-16T21:44:29.530Z,26.83
2018-12-16T21:46:59.497Z,19.77
2018-12-16T21:49:29.438Z,25.10
2018-12-16T21:51:59.499Z,20.73
2018-12-16T21:54:29.490Z,17.17
2018-12-16T21:56:59.572Z,26.53
2018-12-16T21:59:30.176Z,19.07
2018-12-16T22:02:00.244Z,28.70
2018-12-16T22:04:30.065Z,22.57
2018-12-16T22:07:00.147Z,20.23
2018-12-16T22:09:30.191Z,20.10
2018-12-16T22:12:00.294Z,30.57
2018-12-16T22:14:30.176Z,26.33
2018-12-16T22:17:00.195Z,26.97
2018-12-16T22:19:30.135Z,28.03
2018-12-16T22:22:00.034Z,22.90
2018-12-16T22:24:30.105Z,25.43
2018-12-16T22:27:00.472Z,21.13
2018-12-16T22:29:30.568Z,28.90
2018-12-16T22:32:00.357Z,25.77
2018-12-16T22:34:30.170Z,20.73
2018-12-16T22:37:00.063Z,31.80
2018-12-16T22:39:29.955Z,28.83
2018-12-16T22:41:59.848Z,29.57
2018-12-16T22:44:29.752Z,27.10
2018-12-16T22:46:59.550Z,19.60
2018-12-16T22:49:29.403Z,25.90
2018-12-16T22:51:59.371Z,27.10
2018-12-16T22:54:29.226Z,29.00
2018-12-16T22:56:59.652Z,20.57
2018-12-16T22:59:30.727Z,29.77
2018-12-16T23:02:02.039Z,22.33
2018-12-16T23:04:33.006Z,27.40
2018-12-16T23:07:04.679Z,31.70
2018-12-16T23:09:35.394Z,36.77
2018-12-16T23:12:06.151Z,24.73
2018-12-16T23:14:37.089Z,24.17
2018-12-16T23:17:07.713Z,15.90
2018-12-16T23:19:38.046Z,29.23
2018-12-16T23:22:09.575Z,22.83
2018-12-16T23:24:40.977Z,30.43
2018-12-16T23:30:22.230Z,28.73
2018-12-16T23:32:52.824Z,26.27
2018-12-16T23:35:24.007Z,32.40
2018-12-16T23:37:54.105Z,28.37
2018-12-16T23:40:24.941Z,22.33
2018-12-16T23:42:56.001Z,22.90
2018-12-16T23:45:27.058Z,22.00
2018-12-16T23:47:57.770Z,26.00
2018-12-16T23:50:28.806Z,26.40
2018-12-16T23:53:01.011Z,25.20
2018-12-16T23:55:32.246Z,30.30
2018-12-16T23:58:03.359Z,27.37
